sensor_id;sensor_type;location;lat;lon;timestamp;P1;durP1;ratioP1;P2;durP2;ratioP2
76566;SDS011;65428;53.194;6.132;2024-01-27T00:00:10;31.23;;;3.73;;
76566;SDS011;65428;53.194;6.132;2024-01-27T00:02:36;31.55;;;4.00;;
76566;SDS011;65428;53.194;6.132;2024-01-27T00:05:02;27.00;;;3.43;;
76566;SDS011;65428;53.194;6.132;2024-01-27T00:07:28;28.10;;;3.97;;
76566;SDS011;65428;53.194;6.132;2024-01-27T00:09:54;30.77;;;3.60;;
76566;SDS011;65428;53.194;6.132;2024-01-27T00:12:20;31.30;;;3.97;;
76566;SDS011;65428;53.194;6.132;2024-01-27T00:14:46;28.38;;;3.30;;
76566;SDS011;65428;53.194;6.132;2024-01-27T00:17:12;31.57;;;4.20;;
76566;SDS011;65428;53.194;6.132;2024-01-27T00:19:37;31.70;;;4.57;;
76566;SDS011;65428;53.194;6.132;2024-01-27T00:22:03;31.23;;;4.25;;
76566;SDS011;65428;53.194;6.132;2024-01-27T00:24:29;30.02;;;4.28;;
76566;SDS011;65428;53.194;6.132;2024-01-27T00:26:55;27.20;;;4.47;;
76566;SDS011;65428;53.194;6.132;2024-01-27T00:29:21;28.20;;;3.78;;
76566;SDS011;65428;53.194;6.132;2024-01-27T00:31:47;28.80;;;3.70;;
76566;SDS011;65428;53.194;6.132;2024-01-27T00:34:14;28.48;;;3.67;;
76566;SDS011;65428;53.194;6.132;2024-01-27T00:36:40;32.33;;;3.90;;
76566;SDS011;65428;53.194;6.132;2024-01-27T00:39:07;28.20;;;4.10;;
76566;SDS011;65428;53.194;6.132;2024-01-27T00:41:33;28.73;;;4.60;;
76566;SDS011;65428;53.194;6.132;2024-01-27T00:43:59;40.70;;;4.87;;
76566;SDS011;65428;53.194;6.132;2024-01-27T00:46:24;32.63;;;4.82;;
76566;SDS011;65428;53.194;6.132;2024-01-27T00:48:50;32.88;;;5.07;;
76566;SDS011;65428;53.194;6.132;2024-01-27T00:51:16;30.20;;;4.80;;
76566;SDS011;65428;53.194;6.132;2024-01-27T00:53:41;31.90;;;4.78;;
76566;SDS011;65428;53.194;6.132;2024-01-27T00:56:07;32.05;;;4.40;;
76566;SDS011;65428;53.194;6.132;2024-01-27T00:58:33;28.67;;;4.38;;
76566;SDS011;65428;53.194;6.132;2024-01-27T01:00:59;32.88;;;4.28;;
76566;SDS011;65428;53.194;6.132;2024-01-27T01:03:25;32.47;;;4.28;;
76566;SDS011;65428;53.194;6.132;2024-01-27T01:05:50;26.93;;;3.37;;
76566;SDS011;65428;53.194;6.132;2024-01-27T01:08:16;26.73;;;3.50;;
76566;SDS011;65428;53.194;6.132;2024-01-27T01:10:42;30.55;;;3.47;;
76566;SDS011;65428;53.194;6.132;2024-01-27T01:13:07;29.97;;;3.77;;
76566;SDS011;65428;53.194;6.132;2024-01-27T01:15:33;28.60;;;3.10;;
76566;SDS011;65428;53.194;6.132;2024-01-27T01:17:59;31.55;;;3.80;;
76566;SDS011;65428;53.194;6.132;2024-01-27T01:20:24;24.88;;;3.20;;
76566;SDS011;65428;53.194;6.132;2024-01-27T01:22:53;28.58;;;3.30;;
76566;SDS011;65428;53.194;6.132;2024-01-27T01:25:18;25.15;;;3.15;;
76566;SDS011;65428;53.194;6.132;2024-01-27T01:27:47;27.05;;;3.47;;
76566;SDS011;65428;53.194;6.132;2024-01-27T01:30:15;29.30;;;4.10;;
76566;SDS011;65428;53.194;6.132;2024-01-27T01:32:41;26.52;;;4.25;;
76566;SDS011;65428;53.194;6.132;2024-01-27T01:35:08;27.67;;;3.10;;
76566;SDS011;65428;53.194;6.132;2024-01-27T01:37:35;26.63;;;3.97;;
76566;SDS011;65428;53.194;6.132;2024-01-27T01:40:00;29.03;;;3.83;;
76566;SDS011;65428;53.194;6.132;2024-01-27T01:42:27;27.55;;;4.22;;
76566;SDS011;65428;53.194;6.132;2024-01-27T01:44:54;27.42;;;4.80;;
76566;SDS011;65428;53.194;6.132;2024-01-27T01:47:20;25.35;;;4.55;;
76566;SDS011;65428;53.194;6.132;2024-01-27T01:49:47;27.35;;;3.58;;
76566;SDS011;65428;53.194;6.132;2024-01-27T01:52:13;25.20;;;3.43;;
76566;SDS011;65428;53.194;6.132;2024-01-27T01:54:47;25.73;;;3.35;;
76566;SDS011;65428;53.194;6.132;2024-01-27T01:57:14;25.52;;;3.88;;
76566;SDS011;65428;53.194;6.132;2024-01-27T01:59:40;25.58;;;4.50;;
76566;SDS011;65428;53.194;6.132;2024-01-27T02:02:07;29.67;;;4.30;;
76566;SDS011;65428;53.194;6.132;2024-01-27T02:04:40;25.23;;;4.18;;
76566;SDS011;65428;53.194;6.132;2024-01-27T02:07:06;26.27;;;3.30;;
76566;SDS011;65428;53.194;6.132;2024-01-27T02:09:32;32.83;;;3.83;;
76566;SDS011;65428;53.194;6.132;2024-01-27T02:11:57;29.63;;;3.50;;
76566;SDS011;65428;53.194;6.132;2024-01-27T02:14:23;23.45;;;3.35;;
76566;SDS011;65428;53.194;6.132;2024-01-27T02:16:51;21.92;;;3.85;;
76566;SDS011;65428;53.194;6.132;2024-01-27T02:19:17;24.90;;;3.95;;
76566;SDS011;65428;53.194;6.132;2024-01-27T02:21:42;28.85;;;4.95;;
76566;SDS011;65428;53.194;6.132;2024-01-27T02:24:08;27.97;;;5.03;;
76566;SDS011;65428;53.194;6.132;2024-01-27T02:26:34;26.05;;;4.97;;
76566;SDS011;65428;53.194;6.132;2024-01-27T02:29:00;29.63;;;4.80;;
76566;SDS011;65428;53.194;6.132;2024-01-27T02:31:26;32.93;;;5.00;;
76566;SDS011;65428;53.194;6.132;2024-01-27T02:33:51;30.08;;;4.22;;
76566;SDS011;65428;53.194;6.132;2024-01-27T02:36:17;34.45;;;4.53;;
76566;SDS011;65428;53.194;6.132;2024-01-27T02:38:43;28.10;;;4.20;;
76566;SDS011;65428;53.194;6.132;2024-01-27T02:41:11;24.57;;;3.50;;
76566;SDS011;65428;53.194;6.132;2024-01-27T02:43:37;26.45;;;3.78;;
76566;SDS011;65428;53.194;6.132;2024-01-27T02:46:05;31.00;;;5.10;;
76566;SDS011;65428;53.194;6.132;2024-01-27T02:48:39;22.43;;;4.03;;
76566;SDS011;65428;53.194;6.132;2024-01-27T02:51:05;24.98;;;3.97;;
76566;SDS011;65428;53.194;6.132;2024-01-27T02:53:31;32.75;;;4.63;;
76566;SDS011;65428;53.194;6.132;2024-01-27T02:55:57;26.92;;;3.35;;
76566;SDS011;65428;53.194;6.132;2024-01-27T02:58:22;29.80;;;3.97;;
76566;SDS011;65428;53.194;6.132;2024-01-27T03:00:48;31.23;;;4.63;;
76566;SDS011;65428;53.194;6.132;2024-01-27T03:03:13;25.08;;;4.22;;
76566;SDS011;65428;53.194;6.132;2024-01-27T03:05:40;33.42;;;5.05;;
76566;SDS011;65428;53.194;6.132;2024-01-27T03:08:06;27.83;;;4.47;;
76566;SDS011;65428;53.194;6.132;2024-01-27T03:10:32;33.63;;;4.87;;
76566;SDS011;65428;53.194;6.132;2024-01-27T03:12:57;30.83;;;4.27;;
76566;SDS011;65428;53.194;6.132;2024-01-27T03:15:23;27.42;;;3.63;;
76566;SDS011;65428;53.194;6.132;2024-01-27T03:17:48;30.30;;;4.60;;
76566;SDS011;65428;53.194;6.132;2024-01-27T03:20:14;29.17;;;4.20;;
76566;SDS011;65428;53.194;6.132;2024-01-27T03:22:40;23.65;;;3.80;;
76566;SDS011;65428;53.194;6.132;2024-01-27T03:25:07;27.25;;;5.13;;
76566;SDS011;65428;53.194;6.132;2024-01-27T03:27:38;28.17;;;4.93;;
76566;SDS011;65428;53.194;6.132;2024-01-27T03:30:04;28.23;;;3.60;;
76566;SDS011;65428;53.194;6.132;2024-01-27T03:32:30;29.83;;;3.55;;
76566;SDS011;65428;53.194;6.132;2024-01-27T03:34:59;23.50;;;3.70;;
76566;SDS011;65428;53.194;6.132;2024-01-27T03:37:25;27.45;;;4.22;;
76566;SDS011;65428;53.194;6.132;2024-01-27T03:39:51;30.15;;;4.90;;
76566;SDS011;65428;53.194;6.132;2024-01-27T03:42:17;32.30;;;5.20;;
76566;SDS011;65428;53.194;6.132;2024-01-27T03:44:42;31.87;;;4.60;;
76566;SDS011;65428;53.194;6.132;2024-01-27T03:47:08;27.30;;;4.78;;
76566;SDS011;65428;53.194;6.132;2024-01-27T03:49:33;29.23;;;4.97;;
76566;SDS011;65428;53.194;6.132;2024-01-27T03:51:59;29.07;;;4.43;;
76566;SDS011;65428;53.194;6.132;2024-01-27T03:54:25;29.90;;;4.43;;
76566;SDS011;65428;53.194;6.132;2024-01-27T03:56:50;30.23;;;3.92;;
76566;SDS011;65428;53.194;6.132;2024-01-27T03:59:16;26.40;;;3.00;;
76566;SDS011;65428;53.194;6.132;2024-01-27T04:01:42;27.77;;;3.13;;
76566;SDS011;65428;53.194;6.132;2024-01-27T04:04:08;27.88;;;3.38;;
76566;SDS011;65428;53.194;6.132;2024-01-27T04:06:37;30.47;;;3.47;;
76566;SDS011;65428;53.194;6.132;2024-01-27T04:09:04;29.13;;;3.53;;
76566;SDS011;65428;53.194;6.132;2024-01-27T04:11:30;24.27;;;3.95;;
76566;SDS011;65428;53.194;6.132;2024-01-27T04:13:55;26.97;;;4.73;;
76566;SDS011;65428;53.194;6.132;2024-01-27T04:16:21;27.63;;;5.63;;
76566;SDS011;65428;53.194;6.132;2024-01-27T04:18:47;29.80;;;5.00;;
76566;SDS011;65428;53.194;6.132;2024-01-27T04:21:13;28.98;;;4.40;;
76566;SDS011;65428;53.194;6.132;2024-01-27T04:23:38;29.70;;;4.60;;
76566;SDS011;65428;53.194;6.132;2024-01-27T04:26:04;32.90;;;5.47;;
76566;SDS011;65428;53.194;6.132;2024-01-27T04:28:31;31.20;;;5.20;;
76566;SDS011;65428;53.194;6.132;2024-01-27T04:30:57;26.73;;;4.70;;
76566;SDS011;65428;53.194;6.132;2024-01-27T04:33:23;41.20;;;6.75;;
76566;SDS011;65428;53.194;6.132;2024-01-27T04:35:48;30.48;;;4.57;;
76566;SDS011;65428;53.194;6.132;2024-01-27T04:38:14;28.30;;;4.40;;
76566;SDS011;65428;53.194;6.132;2024-01-27T04:40:40;30.33;;;3.80;;
76566;SDS011;65428;53.194;6.132;2024-01-27T04:43:05;25.73;;;3.37;;
76566;SDS011;65428;53.194;6.132;2024-01-27T04:45:31;31.92;;;4.15;;
76566;SDS011;65428;53.194;6.132;2024-01-27T04:47:57;30.23;;;4.80;;
76566;SDS011;65428;53.194;6.132;2024-01-27T04:50:22;27.87;;;4.80;;
76566;SDS011;65428;53.194;6.132;2024-01-27T04:52:48;26.43;;;3.97;;
76566;SDS011;65428;53.194;6.132;2024-01-27T04:55:14;30.75;;;4.90;;
76566;SDS011;65428;53.194;6.132;2024-01-27T04:57:40;31.55;;;5.20;;
76566;SDS011;65428;53.194;6.132;2024-01-27T05:00:06;26.52;;;5.28;;
76566;SDS011;65428;53.194;6.132;2024-01-27T05:02:32;33.97;;;5.50;;
76566;SDS011;65428;53.194;6.132;2024-01-27T05:04:58;32.40;;;5.47;;
76566;SDS011;65428;53.194;6.132;2024-01-27T05:07:24;30.80;;;5.37;;
76566;SDS011;65428;53.194;6.132;2024-01-27T05:09:49;28.80;;;5.27;;
76566;SDS011;65428;53.194;6.132;2024-01-27T05:12:15;23.63;;;4.57;;
76566;SDS011;65428;53.194;6.132;2024-01-27T05:14:44;31.48;;;4.43;;
76566;SDS011;65428;53.194;6.132;2024-01-27T05:17:10;31.13;;;4.22;;
76566;SDS011;65428;53.194;6.132;2024-01-27T05:19:36;32.67;;;5.10;;
76566;SDS011;65428;53.194;6.132;2024-01-27T05:22:01;24.67;;;2.97;;
76566;SDS011;65428;53.194;6.132;2024-01-27T05:24:27;25.50;;;3.40;;
76566;SDS011;65428;53.194;6.132;2024-01-27T05:26:53;25.02;;;3.17;;
76566;SDS011;65428;53.194;6.132;2024-01-27T05:29:18;22.67;;;3.13;;
76566;SDS011;65428;53.194;6.132;2024-01-27T05:31:44;28.50;;;4.13;;
76566;SDS011;65428;53.194;6.132;2024-01-27T05:34:10;25.55;;;4.35;;
76566;SDS011;65428;53.194;6.132;2024-01-27T05:36:36;30.85;;;4.22;;
76566;SDS011;65428;53.194;6.132;2024-01-27T05:39:02;27.63;;;4.32;;
76566;SDS011;65428;53.194;6.132;2024-01-27T05:41:30;25.20;;;4.40;;
76566;SDS011;65428;53.194;6.132;2024-01-27T05:43:56;26.85;;;4.68;;
76566;SDS011;65428;53.194;6.132;2024-01-27T05:46:23;29.95;;;3.97;;
76566;SDS011;65428;53.194;6.132;2024-01-27T05:48:52;27.25;;;3.45;;
76566;SDS011;65428;53.194;6.132;2024-01-27T05:51:28;31.40;;;3.80;;
76566;SDS011;65428;53.194;6.132;2024-01-27T05:53:55;33.15;;;4.35;;
76566;SDS011;65428;53.194;6.132;2024-01-27T05:56:20;30.27;;;4.20;;
76566;SDS011;65428;53.194;6.132;2024-01-27T05:58:46;28.17;;;4.10;;
76566;SDS011;65428;53.194;6.132;2024-01-27T06:01:14;29.80;;;4.13;;
76566;SDS011;65428;53.194;6.132;2024-01-27T06:03:42;24.02;;;4.57;;
76566;SDS011;65428;53.194;6.132;2024-01-27T06:06:08;25.30;;;4.57;;
76566;SDS011;65428;53.194;6.132;2024-01-27T06:08:34;31.90;;;4.10;;
76566;SDS011;65428;53.194;6.132;2024-01-27T06:11:00;29.90;;;4.90;;
76566;SDS011;65428;53.194;6.132;2024-01-27T06:13:26;25.37;;;4.33;;
76566;SDS011;65428;53.194;6.132;2024-01-27T06:15:51;25.15;;;4.43;;
76566;SDS011;65428;53.194;6.132;2024-01-27T06:18:17;27.45;;;4.57;;
76566;SDS011;65428;53.194;6.132;2024-01-27T06:20:43;29.73;;;5.00;;
76566;SDS011;65428;53.194;6.132;2024-01-27T06:23:09;28.67;;;5.25;;
76566;SDS011;65428;53.194;6.132;2024-01-27T06:25:35;30.88;;;4.65;;
76566;SDS011;65428;53.194;6.132;2024-01-27T06:28:00;32.30;;;4.10;;
76566;SDS011;65428;53.194;6.132;2024-01-27T06:30:26;33.30;;;5.37;;
76566;SDS011;65428;53.194;6.132;2024-01-27T06:32:52;30.15;;;5.82;;
76566;SDS011;65428;53.194;6.132;2024-01-27T06:35:18;31.27;;;4.43;;
76566;SDS011;65428;53.194;6.132;2024-01-27T06:37:44;28.83;;;4.97;;
76566;SDS011;65428;53.194;6.132;2024-01-27T06:40:09;38.57;;;5.20;;
76566;SDS011;65428;53.194;6.132;2024-01-27T06:42:35;33.28;;;5.18;;
76566;SDS011;65428;53.194;6.132;2024-01-27T06:45:01;31.07;;;5.10;;
76566;SDS011;65428;53.194;6.132;2024-01-27T06:47:27;35.07;;;5.37;;
76566;SDS011;65428;53.194;6.132;2024-01-27T06:49:52;27.25;;;4.63;;
76566;SDS011;65428;53.194;6.132;2024-01-27T06:52:18;35.40;;;5.93;;
76566;SDS011;65428;53.194;6.132;2024-01-27T06:54:44;29.27;;;5.30;;
76566;SDS011;65428;53.194;6.132;2024-01-27T06:59:46;37.92;;;5.55;;
76566;SDS011;65428;53.194;6.132;2024-01-27T07:02:28;31.17;;;5.90;;
76566;SDS011;65428;53.194;6.132;2024-01-27T07:04:54;33.38;;;5.50;;
76566;SDS011;65428;53.194;6.132;2024-01-27T07:07:22;32.47;;;5.55;;
76566;SDS011;65428;53.194;6.132;2024-01-27T07:09:52;35.85;;;6.38;;
76566;SDS011;65428;53.194;6.132;2024-01-27T07:12:20;35.83;;;5.95;;
76566;SDS011;65428;53.194;6.132;2024-01-27T07:14:46;37.38;;;6.80;;
76566;SDS011;65428;53.194;6.132;2024-01-27T07:17:11;36.73;;;7.23;;
76566;SDS011;65428;53.194;6.132;2024-01-27T07:19:37;34.03;;;5.87;;
76566;SDS011;65428;53.194;6.132;2024-01-27T07:22:02;33.88;;;5.55;;
76566;SDS011;65428;53.194;6.132;2024-01-27T07:24:31;33.65;;;5.57;;
76566;SDS011;65428;53.194;6.132;2024-01-27T07:26:57;38.80;;;5.75;;
76566;SDS011;65428;53.194;6.132;2024-01-27T07:29:25;28.38;;;6.65;;
76566;SDS011;65428;53.194;6.132;2024-01-27T07:31:51;37.53;;;7.50;;
76566;SDS011;65428;53.194;6.132;2024-01-27T07:34:17;35.28;;;7.20;;
76566;SDS011;65428;53.194;6.132;2024-01-27T07:36:43;42.30;;;6.80;;
76566;SDS011;65428;53.194;6.132;2024-01-27T07:39:09;34.13;;;7.30;;
76566;SDS011;65428;53.194;6.132;2024-01-27T07:41:34;29.37;;;6.37;;
76566;SDS011;65428;53.194;6.132;2024-01-27T07:44:07;31.40;;;6.67;;
76566;SDS011;65428;53.194;6.132;2024-01-27T07:46:34;32.03;;;6.05;;
76566;SDS011;65428;53.194;6.132;2024-01-27T07:49:01;33.47;;;6.30;;
76566;SDS011;65428;53.194;6.132;2024-01-27T07:51:27;29.05;;;6.10;;
76566;SDS011;65428;53.194;6.132;2024-01-27T07:53:53;33.47;;;6.43;;
76566;SDS011;65428;53.194;6.132;2024-01-27T07:56:19;34.08;;;5.03;;
76566;SDS011;65428;53.194;6.132;2024-01-27T07:58:44;30.98;;;4.80;;
76566;SDS011;65428;53.194;6.132;2024-01-27T08:01:10;33.90;;;5.17;;
76566;SDS011;65428;53.194;6.132;2024-01-27T08:03:40;31.67;;;5.68;;
76566;SDS011;65428;53.194;6.132;2024-01-27T08:06:06;35.38;;;5.57;;
76566;SDS011;65428;53.194;6.132;2024-01-27T08:08:35;27.88;;;5.05;;
76566;SDS011;65428;53.194;6.132;2024-01-27T08:11:00;29.97;;;5.13;;
76566;SDS011;65428;53.194;6.132;2024-01-27T08:13:26;30.00;;;4.50;;
76566;SDS011;65428;53.194;6.132;2024-01-27T08:15:52;25.92;;;4.38;;
76566;SDS011;65428;53.194;6.132;2024-01-27T08:18:17;28.73;;;5.07;;
76566;SDS011;65428;53.194;6.132;2024-01-27T08:20:43;27.70;;;4.83;;
76566;SDS011;65428;53.194;6.132;2024-01-27T08:23:09;29.88;;;4.75;;
76566;SDS011;65428;53.194;6.132;2024-01-27T08:25:34;27.67;;;4.28;;
76566;SDS011;65428;53.194;6.132;2024-01-27T08:28:00;33.60;;;4.30;;
76566;SDS011;65428;53.194;6.132;2024-01-27T08:30:25;32.67;;;4.88;;
76566;SDS011;65428;53.194;6.132;2024-01-27T08:32:51;29.48;;;4.55;;
76566;SDS011;65428;53.194;6.132;2024-01-27T08:35:17;26.43;;;4.27;;
76566;SDS011;65428;53.194;6.132;2024-01-27T08:37:42;24.05;;;4.55;;
76566;SDS011;65428;53.194;6.132;2024-01-27T08:40:08;29.23;;;4.00;;
76566;SDS011;65428;53.194;6.132;2024-01-27T08:42:34;25.63;;;4.17;;
76566;SDS011;65428;53.194;6.132;2024-01-27T08:44:59;28.13;;;3.63;;
76566;SDS011;65428;53.194;6.132;2024-01-27T08:47:25;26.60;;;3.78;;
76566;SDS011;65428;53.194;6.132;2024-01-27T08:49:51;24.92;;;3.63;;
76566;SDS011;65428;53.194;6.132;2024-01-27T08:52:16;26.90;;;3.83;;
76566;SDS011;65428;53.194;6.132;2024-01-27T08:54:42;26.27;;;4.73;;
76566;SDS011;65428;53.194;6.132;2024-01-27T08:57:08;23.58;;;4.07;;
76566;SDS011;65428;53.194;6.132;2024-01-27T08:59:33;25.60;;;4.10;;
76566;SDS011;65428;53.194;6.132;2024-01-27T09:02:00;23.40;;;3.95;;
76566;SDS011;65428;53.194;6.132;2024-01-27T09:04:26;24.23;;;3.92;;
76566;SDS011;65428;53.194;6.132;2024-01-27T09:06:52;24.58;;;4.75;;
76566;SDS011;65428;53.194;6.132;2024-01-27T09:09:18;23.90;;;4.13;;
76566;SDS011;65428;53.194;6.132;2024-01-27T09:11:43;27.35;;;4.65;;
76566;SDS011;65428;53.194;6.132;2024-01-27T09:14:10;28.90;;;4.50;;
76566;SDS011;65428;53.194;6.132;2024-01-27T09:16:36;25.00;;;4.80;;
76566;SDS011;65428;53.194;6.132;2024-01-27T09:19:02;21.47;;;4.20;;
76566;SDS011;65428;53.194;6.132;2024-01-27T09:21:27;22.10;;;4.87;;
76566;SDS011;65428;53.194;6.132;2024-01-27T09:23:55;22.05;;;4.60;;
76566;SDS011;65428;53.194;6.132;2024-01-27T09:26:23;24.13;;;4.82;;
76566;SDS011;65428;53.194;6.132;2024-01-27T09:28:49;22.98;;;4.90;;
76566;SDS011;65428;53.194;6.132;2024-01-27T09:31:20;31.13;;;5.72;;
76566;SDS011;65428;53.194;6.132;2024-01-27T09:33:48;24.83;;;5.10;;
76566;SDS011;65428;53.194;6.132;2024-01-27T09:36:15;22.27;;;5.43;;
76566;SDS011;65428;53.194;6.132;2024-01-27T09:38:41;26.10;;;5.55;;
76566;SDS011;65428;53.194;6.132;2024-01-27T09:41:06;25.57;;;5.47;;
76566;SDS011;65428;53.194;6.132;2024-01-27T09:43:32;25.48;;;5.43;;
76566;SDS011;65428;53.194;6.132;2024-01-27T09:45:58;25.05;;;5.28;;
76566;SDS011;65428;53.194;6.132;2024-01-27T09:48:24;22.73;;;4.85;;
76566;SDS011;65428;53.194;6.132;2024-01-27T09:50:50;20.23;;;4.30;;
76566;SDS011;65428;53.194;6.132;2024-01-27T09:53:18;24.83;;;5.20;;
76566;SDS011;65428;53.194;6.132;2024-01-27T09:55:44;20.60;;;4.57;;
76566;SDS011;65428;53.194;6.132;2024-01-27T09:58:10;24.85;;;4.72;;
76566;SDS011;65428;53.194;6.132;2024-01-27T10:00:36;17.97;;;4.03;;
76566;SDS011;65428;53.194;6.132;2024-01-27T10:03:03;21.13;;;4.10;;
76566;SDS011;65428;53.194;6.132;2024-01-27T10:05:31;19.38;;;3.28;;
76566;SDS011;65428;53.194;6.132;2024-01-27T10:07:57;14.93;;;3.30;;
76566;SDS011;65428;53.194;6.132;2024-01-27T10:10:23;21.23;;;4.03;;
76566;SDS011;65428;53.194;6.132;2024-01-27T10:12:49;16.83;;;3.30;;
76566;SDS011;65428;53.194;6.132;2024-01-27T10:15:21;17.60;;;3.35;;
76566;SDS011;65428;53.194;6.132;2024-01-27T10:17:47;19.13;;;3.42;;
76566;SDS011;65428;53.194;6.132;2024-01-27T10:20:13;21.27;;;4.00;;
76566;SDS011;65428;53.194;6.132;2024-01-27T10:22:44;18.90;;;4.00;;
76566;SDS011;65428;53.194;6.132;2024-01-27T10:25:10;19.63;;;4.07;;
76566;SDS011;65428;53.194;6.132;2024-01-27T10:27:36;15.23;;;3.25;;
76566;SDS011;65428;53.194;6.132;2024-01-27T10:30:03;18.65;;;4.20;;
76566;SDS011;65428;53.194;6.132;2024-01-27T10:32:29;20.23;;;4.67;;
76566;SDS011;65428;53.194;6.132;2024-01-27T10:37:33;18.25;;;5.28;;
76566;SDS011;65428;53.194;6.132;2024-01-27T10:40:06;20.10;;;4.32;;
76566;SDS011;65428;53.194;6.132;2024-01-27T10:42:36;18.73;;;3.90;;
76566;SDS011;65428;53.194;6.132;2024-01-27T10:45:02;20.98;;;3.92;;
76566;SDS011;65428;53.194;6.132;2024-01-27T10:47:29;17.63;;;3.38;;
76566;SDS011;65428;53.194;6.132;2024-01-27T10:49:57;18.20;;;3.95;;
76566;SDS011;65428;53.194;6.132;2024-01-27T10:52:25;21.15;;;3.83;;
76566;SDS011;65428;53.194;6.132;2024-01-27T10:55:00;15.23;;;3.30;;
76566;SDS011;65428;53.194;6.132;2024-01-27T10:57:31;18.48;;;3.58;;
76566;SDS011;65428;53.194;6.132;2024-01-27T11:00:03;20.00;;;3.63;;
76566;SDS011;65428;53.194;6.132;2024-01-27T11:02:34;19.20;;;3.65;;
76566;SDS011;65428;53.194;6.132;2024-01-27T11:05:02;15.27;;;3.53;;
76566;SDS011;65428;53.194;6.132;2024-01-27T11:07:32;22.63;;;4.15;;
76566;SDS011;65428;53.194;6.132;2024-01-27T11:10:00;18.02;;;3.72;;
76566;SDS011;65428;53.194;6.132;2024-01-27T11:12:26;18.23;;;3.33;;
76566;SDS011;65428;53.194;6.132;2024-01-27T11:14:53;15.75;;;3.28;;
76566;SDS011;65428;53.194;6.132;2024-01-27T11:17:19;14.63;;;3.03;;
76566;SDS011;65428;53.194;6.132;2024-01-27T11:19:45;17.58;;;3.40;;
76566;SDS011;65428;53.194;6.132;2024-01-27T11:22:25;18.73;;;3.85;;
76566;SDS011;65428;53.194;6.132;2024-01-27T11:27:31;17.38;;;3.25;;
76566;SDS011;65428;53.194;6.132;2024-01-27T11:29:57;17.08;;;3.40;;
76566;SDS011;65428;53.194;6.132;2024-01-27T11:32:23;18.03;;;3.63;;
76566;SDS011;65428;53.194;6.132;2024-01-27T11:34:50;17.58;;;3.38;;
76566;SDS011;65428;53.194;6.132;2024-01-27T11:37:17;18.00;;;3.45;;
76566;SDS011;65428;53.194;6.132;2024-01-27T11:39:49;16.90;;;2.80;;
76566;SDS011;65428;53.194;6.132;2024-01-27T11:42:15;15.83;;;3.37;;
76566;SDS011;65428;53.194;6.132;2024-01-27T11:44:41;15.88;;;3.05;;
76566;SDS011;65428;53.194;6.132;2024-01-27T11:47:14;16.95;;;3.20;;
76566;SDS011;65428;53.194;6.132;2024-01-27T11:49:54;20.23;;;3.47;;
76566;SDS011;65428;53.194;6.132;2024-01-27T11:52:22;15.50;;;3.03;;
76566;SDS011;65428;53.194;6.132;2024-01-27T11:54:58;16.90;;;3.03;;
76566;SDS011;65428;53.194;6.132;2024-01-27T11:57:25;16.75;;;2.80;;
76566;SDS011;65428;53.194;6.132;2024-01-27T11:59:51;17.65;;;3.38;;
76566;SDS011;65428;53.194;6.132;2024-01-27T12:02:18;18.15;;;3.38;;
76566;SDS011;65428;53.194;6.132;2024-01-27T12:04:44;16.05;;;2.97;;
76566;SDS011;65428;53.194;6.132;2024-01-27T12:07:10;14.60;;;3.07;;
76566;SDS011;65428;53.194;6.132;2024-01-27T12:09:36;18.15;;;3.40;;
76566;SDS011;65428;53.194;6.132;2024-01-27T12:12:02;15.38;;;3.05;;
76566;SDS011;65428;53.194;6.132;2024-01-27T12:14:39;14.57;;;2.90;;
76566;SDS011;65428;53.194;6.132;2024-01-27T12:17:12;15.23;;;3.20;;
76566;SDS011;65428;53.194;6.132;2024-01-27T12:19:38;16.95;;;3.08;;
76566;SDS011;65428;53.194;6.132;2024-01-27T12:22:04;18.00;;;3.00;;
76566;SDS011;65428;53.194;6.132;2024-01-27T12:24:44;16.08;;;2.72;;
76566;SDS011;65428;53.194;6.132;2024-01-27T12:27:10;16.07;;;3.07;;
76566;SDS011;65428;53.194;6.132;2024-01-27T12:29:36;16.80;;;3.08;;
76566;SDS011;65428;53.194;6.132;2024-01-27T12:32:01;14.50;;;3.05;;
76566;SDS011;65428;53.194;6.132;2024-01-27T12:34:27;15.37;;;3.00;;
76566;SDS011;65428;53.194;6.132;2024-01-27T12:36:53;17.50;;;3.47;;
76566;SDS011;65428;53.194;6.132;2024-01-27T12:39:20;19.60;;;2.97;;
76566;SDS011;65428;53.194;6.132;2024-01-27T12:41:46;17.13;;;3.40;;
76566;SDS011;65428;53.194;6.132;2024-01-27T12:44:11;18.43;;;2.97;;
76566;SDS011;65428;53.194;6.132;2024-01-27T12:46:37;17.67;;;3.58;;
76566;SDS011;65428;53.194;6.132;2024-01-27T12:49:03;17.33;;;3.40;;
76566;SDS011;65428;53.194;6.132;2024-01-27T12:51:30;16.98;;;3.22;;
76566;SDS011;65428;53.194;6.132;2024-01-27T12:53:56;15.43;;;2.85;;
76566;SDS011;65428;53.194;6.132;2024-01-27T12:56:22;15.70;;;3.17;;
76566;SDS011;65428;53.194;6.132;2024-01-27T12:58:48;15.52;;;2.83;;
76566;SDS011;65428;53.194;6.132;2024-01-27T13:01:14;16.52;;;2.85;;
76566;SDS011;65428;53.194;6.132;2024-01-27T13:03:40;16.02;;;2.97;;
76566;SDS011;65428;53.194;6.132;2024-01-27T13:06:06;13.55;;;2.80;;
76566;SDS011;65428;53.194;6.132;2024-01-27T13:08:31;16.67;;;3.07;;
76566;SDS011;65428;53.194;6.132;2024-01-27T13:10:57;19.33;;;3.33;;
76566;SDS011;65428;53.194;6.132;2024-01-27T13:13:24;13.32;;;2.70;;
76566;SDS011;65428;53.194;6.132;2024-01-27T13:15:49;15.00;;;3.40;;
76566;SDS011;65428;53.194;6.132;2024-01-27T13:18:15;16.42;;;3.03;;
76566;SDS011;65428;53.194;6.132;2024-01-27T13:20:41;14.68;;;3.10;;
76566;SDS011;65428;53.194;6.132;2024-01-27T13:23:06;15.30;;;3.07;;
76566;SDS011;65428;53.194;6.132;2024-01-27T13:25:32;16.25;;;3.25;;
76566;SDS011;65428;53.194;6.132;2024-01-27T13:27:58;12.80;;;2.75;;
76566;SDS011;65428;53.194;6.132;2024-01-27T13:30:26;15.73;;;3.20;;
76566;SDS011;65428;53.194;6.132;2024-01-27T13:32:53;16.92;;;2.90;;
76566;SDS011;65428;53.194;6.132;2024-01-27T13:35:19;16.67;;;3.47;;
76566;SDS011;65428;53.194;6.132;2024-01-27T13:37:45;17.27;;;3.40;;
76566;SDS011;65428;53.194;6.132;2024-01-27T13:40:13;16.35;;;3.78;;
76566;SDS011;65428;53.194;6.132;2024-01-27T13:42:39;15.85;;;3.92;;
76566;SDS011;65428;53.194;6.132;2024-01-27T13:45:04;13.70;;;3.42;;
76566;SDS011;65428;53.194;6.132;2024-01-27T13:47:31;15.70;;;4.10;;
76566;SDS011;65428;53.194;6.132;2024-01-27T13:49:57;15.90;;;3.97;;
76566;SDS011;65428;53.194;6.132;2024-01-27T13:52:23;18.70;;;4.07;;
76566;SDS011;65428;53.194;6.132;2024-01-27T13:54:49;18.52;;;3.72;;
76566;SDS011;65428;53.194;6.132;2024-01-27T13:57:15;17.88;;;3.92;;
76566;SDS011;65428;53.194;6.132;2024-01-27T13:59:41;19.00;;;3.97;;
76566;SDS011;65428;53.194;6.132;2024-01-27T14:02:07;18.00;;;3.80;;
76566;SDS011;65428;53.194;6.132;2024-01-27T14:04:33;16.08;;;4.18;;
76566;SDS011;65428;53.194;6.132;2024-01-27T14:06:59;18.17;;;4.68;;
76566;SDS011;65428;53.194;6.132;2024-01-27T14:09:31;17.48;;;4.43;;
76566;SDS011;65428;53.194;6.132;2024-01-27T14:11:57;20.50;;;4.57;;
76566;SDS011;65428;53.194;6.132;2024-01-27T14:14:23;23.17;;;5.17;;
76566;SDS011;65428;53.194;6.132;2024-01-27T14:16:49;19.50;;;4.67;;
76566;SDS011;65428;53.194;6.132;2024-01-27T14:19:14;17.85;;;4.20;;
76566;SDS011;65428;53.194;6.132;2024-01-27T14:21:40;19.47;;;4.33;;
76566;SDS011;65428;53.194;6.132;2024-01-27T14:24:06;20.50;;;5.03;;
76566;SDS011;65428;53.194;6.132;2024-01-27T14:26:33;20.05;;;4.40;;
76566;SDS011;65428;53.194;6.132;2024-01-27T14:28:59;19.50;;;4.43;;
76566;SDS011;65428;53.194;6.132;2024-01-27T14:31:24;19.77;;;4.90;;
76566;SDS011;65428;53.194;6.132;2024-01-27T14:33:50;15.23;;;4.57;;
76566;SDS011;65428;53.194;6.132;2024-01-27T14:36:16;14.87;;;4.63;;